Terminal Aerodrome Forecast
Issued by NWS Memphis, TN

Home | Current Version | Previous Version | Text Only | Print | Product List | Glossary On
Versions: 1 2 3 4 5 6 7 8 9 10 11 12 13 14 15 16 17 18 19 20 21 22 23 24 25 26 27
237
FTUS44 KMEG 202327
TAFMEM
TAF
KMEM 202327Z 2100/2124 17007KT P6SM SCT045 BKN250
     FM210600 16005KT P6SM VCSH OVC070
     FM210900 18005KT 4SM -SHRA BKN015 OVC025
      TEMPO 2109/2112 2SM SHRA OVC007
     FM211200 19007KT 4SM -RA BR OVC007
     FM211900 19006KT P6SM OVC015=

USA.gov is the U.S. government's official web portal to all federal, state and local government web resources and services.